createdAt,value
2017-08-18T00:00:00.119Z,13.87
2017-08-18T00:01:10.389Z,13.82
2017-08-18T00:02:20.346Z,13.82
2017-08-18T00:03:30.001Z,13.86
2017-08-18T00:04:40.299Z,13.83
2017-08-18T00:05:50.570Z,13.82
2017-08-18T00:07:00.846Z,13.85
2017-08-18T00:08:11.125Z,13.83
2017-08-18T00:09:21.083Z,13.87
2017-08-18T00:10:31.044Z,13.91
2017-08-18T00:11:40.684Z,13.86
2017-08-18T00:12:50.642Z,13.87
2017-08-18T00:14:00.923Z,13.86
2017-08-18T00:15:11.198Z,13.87
2017-08-18T00:16:21.467Z,13.85
2017-08-18T00:17:31.429Z,13.8
2017-08-18T00:18:41.703Z,13.94
2017-08-18T00:19:51.975Z,13.85
2017-08-18T00:21:01.933Z,13.8
2017-08-18T00:22:12.208Z,13.97
2017-08-18T00:23:22.161Z,13.85
2017-08-18T00:24:32.429Z,13.89
2017-08-18T00:25:42.385Z,13.8
2017-08-18T00:26:52.349Z,13.86
2017-08-18T00:28:02.638Z,13.82
2017-08-18T00:29:12.908Z,13.86
2017-08-18T00:30:22.237Z,13.83
2017-08-18T00:31:32.518Z,13.89
2017-08-18T00:32:42.799Z,13.85
2017-08-18T00:33:52.757Z,13.79
2017-08-18T00:35:03.030Z,13.93
2017-08-18T00:36:12.992Z,13.82
2017-08-18T00:37:22.958Z,13.85
2017-08-18T00:38:33.241Z,13.85
2017-08-18T00:39:43.513Z,13.82
2017-08-18T00:40:53.784Z,13.87
2017-08-18T00:42:04.062Z,13.87
2017-08-18T00:43:14.338Z,13.78
2017-08-18T00:44:24.299Z,13.79
2017-08-18T00:45:34.570Z,13.78
2017-08-18T00:46:44.845Z,13.73
2017-08-18T00:47:54.494Z,13.79
2017-08-18T00:49:04.764Z,13.78
2017-08-18T00:50:14.725Z,13.82
2017-08-18T00:51:24.053Z,13.78
2017-08-18T00:52:34.333Z,13.75
2017-08-18T00:53:44.291Z,13.82
2017-08-18T00:54:54.262Z,13.68
2017-08-18T00:56:04.537Z,13.76
2017-08-18T00:57:14.811Z,13.68
2017-08-18T00:58:24.784Z,13.75
2017-08-18T00:59:35.060Z,13.67
2017-08-18T01:00:45.013Z,13.65
2017-08-18T01:01:54.662Z,13.73
2017-08-18T01:03:04.618Z,13.68
2017-08-18T01:04:14.900Z,13.65
2017-08-18T01:05:25.177Z,13.65
2017-08-18T01:06:35.449Z,13.75
2017-08-18T01:07:45.407Z,13.71
2017-08-18T01:08:55.673Z,13.7
2017-08-18T01:10:06.005Z,13.75
2017-08-18T01:11:15.974Z,13.71
2017-08-18T01:12:26.255Z,13.83
2017-08-18T01:13:36.213Z,13.79
2017-08-18T01:14:46.491Z,13.8
2017-08-18T01:15:56.766Z,13.78
2017-08-18T01:17:07.044Z,13.8
2017-08-18T01:18:16.999Z,13.75
2017-08-18T01:19:26.953Z,13.8
2017-08-18T01:20:36.908Z,13.83
2017-08-18T01:21:47.180Z,13.76
2017-08-18T01:22:56.836Z,13.82
2017-08-18T01:24:06.794Z,13.8
2017-08-18T01:25:17.067Z,13.82
2017-08-18T01:26:26.081Z,13.85
2017-08-18T01:27:36.361Z,13.87
2017-08-18T01:28:46.636Z,13.85
2017-08-18T01:29:56.589Z,13.82
2017-08-18T01:31:06.876Z,13.89
2017-08-18T01:32:16.834Z,13.89
2017-08-18T01:33:26.792Z,13.87
2017-08-18T01:34:37.063Z,13.86
2017-08-18T01:35:47.335Z,13.83
2017-08-18T01:36:57.603Z,13.83
2017-08-18T01:38:07.876Z,13.83
2017-08-18T01:39:18.150Z,13.97
2017-08-18T01:40:28.422Z,13.86
2017-08-18T01:41:38.380Z,13.85
2017-08-18T01:42:48.654Z,13.94
2017-08-18T01:43:58.611Z,13.82
2017-08-18T01:45:08.567Z,13.87
2017-08-18T01:46:18.837Z,13.8
2017-08-18T01:47:28.799Z,13.87
2017-08-18T01:48:39.068Z,13.8
2017-08-18T01:49:49.338Z,13.93
2017-08-18T01:50:59.709Z,13.87
2017-08-18T01:52:09.669Z,13.86
2017-08-18T01:53:19.946Z,13.91
2017-08-18T01:54:29.903Z,13.86
2017-08-18T01:55:40.178Z,13.91
2017-08-18T01:56:50.133Z,13.86
2017-08-18T01:58:00.407Z,13.86
2017-08-18T01:59:10.364Z,13.85
2017-08-18T02:00:20.642Z,13.86
2017-08-18T02:01:30.595Z,13.89
2017-08-18T02:02:40.246Z,13.93
2017-08-18T02:03:50.570Z,13.86
2017-08-18T02:05:00.843Z,13.87
2017-08-18T02:06:10.801Z,13.86
2017-08-18T02:07:21.105Z,13.83
2017-08-18T02:08:31.376Z,13.91
2017-08-18T02:09:41.332Z,13.82
2017-08-18T02:10:51.602Z,13.83
2017-08-18T02:12:01.243Z,13.79
2017-08-18T02:13:11.530Z,13.91
2017-08-18T02:14:21.489Z,13.83
2017-08-18T02:15:31.758Z,13.94
2017-08-18T02:16:41.714Z,13.87
2017-08-18T02:17:51.986Z,13.89
2017-08-18T02:19:02.258Z,13.91
2017-08-18T02:20:12.536Z,13.91
2017-08-18T02:21:22.808Z,13.97
2017-08-18T02:22:32.768Z,13.94
2017-08-18T02:23:43.044Z,13.95
2017-08-18T02:24:53.320Z,13.98
2017-08-18T02:26:03.595Z,13.98
2017-08-18T02:27:13.553Z,13.98
2017-08-18T02:28:23.507Z,13.94
2017-08-18T02:29:33.779Z,13.98
2017-08-18T02:30:44.054Z,14.08
2017-08-18T02:31:54.327Z,14.08
2017-08-18T02:33:04.597Z,13.97
2017-08-18T02:34:14.559Z,13.97
2017-08-18T02:35:24.518Z,13.94
2017-08-18T02:36:34.793Z,13.98
2017-08-18T02:37:45.064Z,13.97
2017-08-18T02:38:55.424Z,13.95
2017-08-18T02:40:05.383Z,13.93
2017-08-18T02:41:15.347Z,13.97
2017-08-18T02:42:25.330Z,13.94
2017-08-18T02:43:35.323Z,13.94
2017-08-18T02:44:45.597Z,13.98
2017-08-18T02:45:55.903Z,13.95
2017-08-18T02:47:05.864Z,13.97
2017-08-18T02:48:15.829Z,13.87
2017-08-18T02:49:25.473Z,13.93
2017-08-18T02:50:35.443Z,13.98
2017-08-18T02:51:45.412Z,13.97
2017-08-18T02:52:55.370Z,13.95
2017-08-18T02:54:05.638Z,14.07
2017-08-18T02:55:14.661Z,14
2017-08-18T02:56:24.624Z,13.94
2017-08-18T02:57:34.912Z,13.94
2017-08-18T02:58:44.867Z,13.93
2017-08-18T02:59:54.825Z,13.94
2017-08-18T03:01:04.784Z,13.98
2017-08-18T03:02:15.054Z,14
2017-08-18T03:03:25.010Z,14.01
2017-08-18T03:04:34.968Z,13.95
2017-08-18T03:05:45.241Z,13.97
2017-08-18T03:06:55.508Z,13.95
2017-08-18T03:08:05.155Z,14
2017-08-18T03:09:15.427Z,13.98
2017-08-18T03:10:25.383Z,14
2017-08-18T03:11:35.344Z,14
2017-08-18T03:12:45.615Z,13.94
2017-08-18T03:13:55.886Z,13.97
2017-08-18T03:15:05.842Z,14.01
2017-08-18T03:16:15.497Z,14
2017-08-18T03:17:25.138Z,13.95
2017-08-18T03:18:35.405Z,13.94
2017-08-18T03:19:45.367Z,13.91
2017-08-18T03:20:55.639Z,13.89
2017-08-18T03:22:05.601Z,13.87
2017-08-18T03:23:15.888Z,13.83
2017-08-18T03:24:25.526Z,13.86
2017-08-18T03:25:35.482Z,13.83
2017-08-18T03:26:45.760Z,13.91
2017-08-18T03:27:55.726Z,13.85
2017-08-18T03:29:06.002Z,13.83
2017-08-18T03:30:16.276Z,13.94
2017-08-18T03:31:26.247Z,13.85
2017-08-18T03:32:36.518Z,13.89
2017-08-18T03:33:46.786Z,13.86
2017-08-18T03:34:57.054Z,13.82
2017-08-18T03:36:07.013Z,13.83
2017-08-18T03:37:16.971Z,13.86
2017-08-18T03:38:27.241Z,13.85
2017-08-18T03:39:37.509Z,13.82
2017-08-18T03:40:47.783Z,13.85
2017-08-18T03:41:58.055Z,13.91
2017-08-18T03:43:08.329Z,13.8
2017-08-18T03:44:17.970Z,13.79
2017-08-18T03:45:27.946Z,13.79
2017-08-18T03:46:38.219Z,13.85
2017-08-18T03:47:48.172Z,13.8
2017-08-18T03:48:58.444Z,13.87
2017-08-18T03:50:08.717Z,13.8
2017-08-18T03:51:18.985Z,13.85
2017-08-18T03:52:28.324Z,13.86
2017-08-18T03:53:38.292Z,13.86
2017-08-18T03:54:48.593Z,13.83
2017-08-18T03:55:58.873Z,13.79
2017-08-18T03:57:08.827Z,13.73
2017-08-18T03:58:18.784Z,13.82
2017-08-18T03:59:28.427Z,13.75
2017-08-18T04:00:38.383Z,13.71
2017-08-18T04:01:48.350Z,13.7
2017-08-18T04:02:58.619Z,13.73
2017-08-18T04:04:08.892Z,13.61
2017-08-18T04:05:18.848Z,13.62
2017-08-18T04:06:29.133Z,13.71
2017-08-18T04:07:39.406Z,13.68
2017-08-18T04:08:49.360Z,13.71
2017-08-18T04:09:59.634Z,13.75
2017-08-18T04:11:09.276Z,13.61
2017-08-18T04:12:19.545Z,13.61
2017-08-18T04:13:29.509Z,13.61
2017-08-18T04:14:39.160Z,13.62
2017-08-18T04:15:49.439Z,13.71
2017-08-18T04:16:59.713Z,13.64
2017-08-18T04:18:10.011Z,13.71
2017-08-18T04:19:20.283Z,13.64
2017-08-18T04:20:30.554Z,13.76
2017-08-18T04:21:40.505Z,13.7
2017-08-18T04:22:50.465Z,13.65
2017-08-18T04:24:00.448Z,13.75
2017-08-18T04:25:10.716Z,13.75
2017-08-18T04:26:20.986Z,13.78
2017-08-18T04:27:30.944Z,13.78
2017-08-18T04:28:41.217Z,13.68
2017-08-18T04:29:51.486Z,13.79
2017-08-18T04:31:01.442Z,13.79
2017-08-18T04:32:11.423Z,13.8
2017-08-18T04:33:21.697Z,13.8
2017-08-18T04:34:31.663Z,13.79
2017-08-18T04:35:41.936Z,13.8
2017-08-18T04:36:52.217Z,13.91
2017-08-18T04:38:02.175Z,13.86
2017-08-18T04:39:12.447Z,13.79
2017-08-18T04:40:22.719Z,13.83
2017-08-18T04:41:32.990Z,13.91
2017-08-18T04:42:43.265Z,13.89
2017-08-18T04:43:53.535Z,13.79
2017-08-18T04:45:03.501Z,13.82
2017-08-18T04:46:13.461Z,13.79
2017-08-18T04:47:23.417Z,13.89
2017-08-18T04:48:33.372Z,13.8
2017-08-18T04:49:43.642Z,13.82
2017-08-18T04:50:53.933Z,13.86
2017-08-18T04:52:03.889Z,13.86
2017-08-18T04:53:13.847Z,13.83
2017-08-18T04:54:23.809Z,13.86
2017-08-18T04:55:33.779Z,13.86
2017-08-18T04:56:43.735Z,13.86
2017-08-18T04:57:54.021Z,13.93
2017-08-18T04:59:04.299Z,13.8
2017-08-18T05:00:14.569Z,13.89
2017-08-18T05:01:24.525Z,13.86
2017-08-18T05:02:34.795Z,13.87
2017-08-18T05:03:44.436Z,13.79
2017-08-18T05:04:54.718Z,13.91
2017-08-18T05:06:04.998Z,13.85
2017-08-18T05:07:14.953Z,13.8
2017-08-18T05:08:24.909Z,13.83
2017-08-18T05:09:35.184Z,13.87
2017-08-18T05:10:45.143Z,13.85
2017-08-18T05:11:55.417Z,13.91
2017-08-18T05:13:05.695Z,13.76
2017-08-18T05:14:15.974Z,13.79
2017-08-18T05:15:25.626Z,13.85
2017-08-18T05:16:35.901Z,13.82
2017-08-18T05:17:45.860Z,13.76
2017-08-18T05:18:56.130Z,13.79
2017-08-18T05:20:06.404Z,13.87
2017-08-18T05:21:16.368Z,13.8
2017-08-18T05:22:26.646Z,13.86
2017-08-18T05:23:36.602Z,13.78
2017-08-18T05:24:46.872Z,13.73
2017-08-18T05:25:57.158Z,13.79
2017-08-18T05:27:07.431Z,13.85
2017-08-18T05:28:17.702Z,13.87
2017-08-18T05:29:27.975Z,13.79
2017-08-18T05:30:37.931Z,13.85
2017-08-18T05:31:47.888Z,13.87
2017-08-18T05:32:57.531Z,13.86
2017-08-18T05:34:07.805Z,13.82
2017-08-18T05:35:18.078Z,13.83
2017-08-18T05:36:28.034Z,13.95
2017-08-18T05:37:37.993Z,13.83
2017-08-18T05:38:48.274Z,13.89
2017-08-18T05:39:57.921Z,13.89
2017-08-18T05:41:07.564Z,13.91
2017-08-18T05:42:17.832Z,13.89
2017-08-18T05:43:27.471Z,13.95
2017-08-18T05:44:37.663Z,13.91
2017-08-18T05:45:47.955Z,13.94
2017-08-18T05:46:57.594Z,14.03
2017-08-18T05:48:07.553Z,13.94
2017-08-18T05:49:17.838Z,14.01
2017-08-18T05:50:28.112Z,14.05
2017-08-18T05:51:38.391Z,13.93
2017-08-18T05:52:48.663Z,14.07
2017-08-18T05:53:58.303Z,14.05
2017-08-18T05:55:07.629Z,14.05
2017-08-18T05:56:17.588Z,14.07
2017-08-18T05:57:27.547Z,14.12
2017-08-18T05:58:37.503Z,14.08
2017-08-18T05:59:47.777Z,14.08
2017-08-18T06:00:58.044Z,14.12
2017-08-18T06:02:08.006Z,14.12
2017-08-18T06:03:17.968Z,14.19
2017-08-18T06:04:27.612Z,14.19
2017-08-18T06:05:37.571Z,14.13
2017-08-18T06:06:47.846Z,14.15
2017-08-18T06:07:58.119Z,14.15
2017-08-18T06:09:08.083Z,14.11
2017-08-18T06:10:18.047Z,14.19
2017-08-18T06:11:28.048Z,14.16
2017-08-18T06:12:38.318Z,14.2
2017-08-18T06:13:48.592Z,14.22
2017-08-18T06:14:58.861Z,14.23
2017-08-18T06:16:08.818Z,14.23
2017-08-18T06:17:19.090Z,14.28
2017-08-18T06:18:29.054Z,14.25
2017-08-18T06:19:39.013Z,14.25
2017-08-18T06:20:49.285Z,14.25
2017-08-18T06:21:59.568Z,14.23
2017-08-18T06:23:09.838Z,14.3
2017-08-18T06:24:20.120Z,14.26
2017-08-18T06:25:30.086Z,14.31
2017-08-18T06:26:39.099Z,14.28
2017-08-18T06:27:49.379Z,14.25
2017-08-18T06:28:59.651Z,14.4
2017-08-18T06:30:09.928Z,14.33
2017-08-18T06:31:19.885Z,14.25
2017-08-18T06:32:29.844Z,14.38
2017-08-18T06:33:40.114Z,14.37
2017-08-18T06:34:50.081Z,14.3
2017-08-18T06:36:00.358Z,14.25
2017-08-18T06:37:10.316Z,14.28
2017-08-18T06:38:20.587Z,14.34
2017-08-18T06:39:30.863Z,14.43
2017-08-18T06:40:41.138Z,14.34
2017-08-18T06:41:51.422Z,14.34
2017-08-18T06:43:01.383Z,14.36
2017-08-18T06:44:11.689Z,14.26
2017-08-18T06:45:21.965Z,14.3
2017-08-18T06:46:32.269Z,14.26
2017-08-18T06:47:42.225Z,14.3
2017-08-18T06:48:52.184Z,14.31
2017-08-18T06:50:02.457Z,14.31
2017-08-18T06:51:12.422Z,14.26
2017-08-18T06:52:22.691Z,14.37
2017-08-18T06:53:32.648Z,14.38
2017-08-18T06:54:42.917Z,14.36
2017-08-18T06:55:53.198Z,14.28
2017-08-18T06:57:03.165Z,14.36
2017-08-18T06:58:13.437Z,14.33
2017-08-18T06:59:23.707Z,14.36
2017-08-18T07:00:33.978Z,14.38
2017-08-18T07:01:44.248Z,14.44
2017-08-18T07:02:54.209Z,14.49
2017-08-18T07:04:04.481Z,14.56
2017-08-18T07:05:13.811Z,14.52
2017-08-18T07:06:23.767Z,14.49
2017-08-18T07:07:34.042Z,14.55
2017-08-18T07:08:44.315Z,14.63
2017-08-18T07:09:54.608Z,14.61
2017-08-18T07:11:04.888Z,14.7
2017-08-18T07:12:15.161Z,14.78
2017-08-18T07:13:25.117Z,14.73
2017-08-18T07:14:35.389Z,14.79
2017-08-18T07:15:45.660Z,14.78
2017-08-18T07:16:55.628Z,14.86
2017-08-18T07:18:05.901Z,14.96
2017-08-18T07:19:15.546Z,14.94
2017-08-18T07:20:25.511Z,15
2017-08-18T07:21:35.782Z,14.96
2017-08-18T07:22:45.739Z,14.96
2017-08-18T07:23:58.013Z,15
2017-08-18T07:25:07.972Z,14.94
2017-08-18T07:26:18.299Z,15.08
2017-08-18T07:27:28.253Z,15.15
2017-08-18T07:28:38.221Z,15.17
2017-08-18T07:29:48.497Z,15.17
2017-08-18T07:30:58.774Z,15.23
2017-08-18T07:32:09.046Z,15.25
2017-08-18T07:33:19.002Z,15.26
2017-08-18T07:34:28.019Z,15.32
2017-08-18T07:35:40.440Z,15.32
2017-08-18T07:36:50.713Z,15.37
2017-08-18T07:38:00.988Z,15.45
2017-08-18T07:39:11.271Z,15.47
2017-08-18T07:40:21.569Z,15.39
2017-08-18T07:41:33.946Z,15.47
2017-08-18T07:42:43.910Z,15.6
2017-08-18T07:43:54.184Z,15.63
2017-08-18T07:45:04.460Z,15.48
2017-08-18T07:46:14.733Z,15.67
2017-08-18T07:47:25.007Z,15.57
2017-08-18T07:48:34.963Z,15.63
2017-08-18T07:49:44.920Z,15.66
2017-08-18T07:50:54.901Z,15.66
2017-08-18T07:52:05.174Z,15.66
2017-08-18T07:53:15.132Z,15.66
2017-08-18T07:54:25.092Z,15.67
2017-08-18T07:55:35.054Z,15.67
2017-08-18T07:56:45.327Z,15.7
2017-08-18T07:57:55.289Z,15.75
2017-08-18T07:59:05.252Z,15.76
2017-08-18T08:00:15.527Z,15.81
2017-08-18T08:01:25.830Z,15.87
2017-08-18T08:02:35.159Z,15.88
2017-08-18T08:03:45.119Z,15.84
2017-08-18T08:04:55.076Z,15.85
2017-08-18T08:06:05.353Z,15.85
2017-08-18T08:07:15.315Z,15.84
2017-08-18T08:08:25.284Z,15.88
2017-08-18T08:09:34.932Z,15.92
2017-08-18T08:10:44.575Z,15.92
2017-08-18T08:11:54.534Z,15.92
2017-08-18T08:13:04.497Z,15.9
2017-08-18T08:14:14.770Z,15.94
2017-08-18T08:15:24.745Z,16.02
2017-08-18T08:16:35.021Z,15.96
2017-08-18T08:17:45.294Z,15.94
2017-08-18T08:18:55.571Z,15.94
2017-08-18T08:20:05.534Z,15.88
2017-08-18T08:21:15.833Z,15.94
2017-08-18T08:22:25.792Z,16.02
2017-08-18T08:23:35.124Z,15.99
2017-08-18T08:24:45.405Z,15.96
2017-08-18T08:25:55.066Z,16
2017-08-18T08:27:05.029Z,16.05
2017-08-18T08:28:15.301Z,15.96
2017-08-18T08:29:25.575Z,15.94
2017-08-18T08:30:35.537Z,15.87
2017-08-18T08:31:45.812Z,15.92
2017-08-18T08:32:55.456Z,15.98
2017-08-18T08:34:05.419Z,16.06
2017-08-18T08:35:15.705Z,16.05
2017-08-18T08:36:25.975Z,16.21
2017-08-18T08:37:36.246Z,16.17
2017-08-18T08:38:46.523Z,16.29
2017-08-18T08:39:56.484Z,16.39
2017-08-18T08:41:06.130Z,16.44
2017-08-18T08:42:16.401Z,16.59
2017-08-18T08:43:26.362Z,16.61
2017-08-18T08:44:36.320Z,16.68
2017-08-18T08:45:46.601Z,16.8
2017-08-18T08:46:55.932Z,16.86
2017-08-18T08:48:05.889Z,16.97
2017-08-18T08:49:15.222Z,17.07
2017-08-18T08:50:25.191Z,17.1
2017-08-18T08:51:35.470Z,17.23
2017-08-18T08:52:45.746Z,17.32
2017-08-18T08:53:56.027Z,17.5
2017-08-18T08:55:05.722Z,17.54
2017-08-18T08:56:15.696Z,17.59
2017-08-18T08:57:25.660Z,17.72
2017-08-18T08:58:35.944Z,17.68
2017-08-18T08:59:45.905Z,17.75
2017-08-18T09:00:55.872Z,17.82
2017-08-18T09:02:05.210Z,17.88
2017-08-18T09:03:15.484Z,17.93
2017-08-18T09:04:25.489Z,17.95
2017-08-18T09:05:35.763Z,17.91
2017-08-18T09:06:46.045Z,17.91
2017-08-18T09:07:56.006Z,17.88
2017-08-18T09:09:06.282Z,17.91
2017-08-18T09:10:16.245Z,17.94
2017-08-18T09:11:26.531Z,17.95
2017-08-18T09:12:36.175Z,17.95
2017-08-18T09:13:46.459Z,17.86
2017-08-18T09:14:56.419Z,17.98
2017-08-18T09:16:06.710Z,17.93
2017-08-18T09:17:16.672Z,17.94
2017-08-18T09:18:26.944Z,17.87
2017-08-18T09:19:36.595Z,17.98
2017-08-18T09:20:46.869Z,17.9
2017-08-18T09:21:56.834Z,17.79
2017-08-18T09:23:06.484Z,17.79
2017-08-18T09:24:16.762Z,17.82
2017-08-18T09:25:27.038Z,17.65
2017-08-18T09:26:36.994Z,17.69
2017-08-18T09:27:46.637Z,17.65
2017-08-18T09:28:56.911Z,17.65
2017-08-18T09:30:07.190Z,17.66
2017-08-18T09:31:17.464Z,17.69
2017-08-18T09:32:27.433Z,17.72
2017-08-18T09:33:37.076Z,17.75
2017-08-18T09:34:47.354Z,17.72
2017-08-18T09:35:57.314Z,17.68
2017-08-18T09:37:07.588Z,17.6
2017-08-18T09:38:17.865Z,17.63
2017-08-18T09:39:27.832Z,17.69
2017-08-18T09:40:38.112Z,17.59
2017-08-18T09:41:48.073Z,17.72
2017-08-18T09:42:58.350Z,17.59
2017-08-18T09:44:08.318Z,17.75
2017-08-18T09:45:18.278Z,17.65
2017-08-18T09:46:28.237Z,17.71
2017-08-18T09:47:38.509Z,17.72
2017-08-18T09:48:48.785Z,17.73
2017-08-18T09:49:58.752Z,17.71
2017-08-18T09:51:08.399Z,17.72
2017-08-18T09:52:18.678Z,17.78
2017-08-18T09:53:28.334Z,17.63
2017-08-18T09:54:38.607Z,17.68
2017-08-18T09:55:48.880Z,17.71
2017-08-18T09:56:59.160Z,17.73
2017-08-18T09:58:09.461Z,17.72
2017-08-18T09:59:19.430Z,17.8
2017-08-18T10:00:29.395Z,17.82
2017-08-18T10:01:39.670Z,17.73
2017-08-18T10:02:49.320Z,17.84
2017-08-18T10:03:59.282Z,17.82
2017-08-18T10:05:09.590Z,17.93
2017-08-18T10:06:19.557Z,17.95
2017-08-18T10:07:29.847Z,17.97
2017-08-18T10:08:40.123Z,17.98
2017-08-18T10:09:50.399Z,17.95
2017-08-18T10:11:00.681Z,18.03
2017-08-18T10:12:10.646Z,18.13
2017-08-18T10:13:20.608Z,18.11
2017-08-18T10:14:30.256Z,18.15
2017-08-18T10:15:40.226Z,18.27
2017-08-18T10:16:50.500Z,18.21
2017-08-18T10:18:00.783Z,18.23
2017-08-18T10:19:11.059Z,18.23
2017-08-18T10:20:21.336Z,18.26
2017-08-18T10:21:31.609Z,18.24
2017-08-18T10:22:41.570Z,18.21
2017-08-18T10:23:51.850Z,18.12
2017-08-18T10:25:01.816Z,17.84
2017-08-18T10:26:11.782Z,17.72
2017-08-18T10:27:22.066Z,17.35
2017-08-18T10:28:31.398Z,17.13
2017-08-18T10:29:41.359Z,16.84
2017-08-18T10:30:51.638Z,16.66
2017-08-18T10:32:01.602Z,16.64
2017-08-18T10:33:10.939Z,16.47
2017-08-18T10:34:21.217Z,16.39
2017-08-18T10:35:31.175Z,16.22
2017-08-18T10:36:41.448Z,16.22
2017-08-18T10:37:51.095Z,16.17
2017-08-18T10:39:01.061Z,16.31
2017-08-18T10:40:11.337Z,16.28
2017-08-18T10:41:21.619Z,16.39
2017-08-18T10:42:31.579Z,16.5
2017-08-18T10:43:41.859Z,16.64
2017-08-18T10:44:51.190Z,16.86
2017-08-18T10:46:01.469Z,16.87
2017-08-18T10:47:11.746Z,17.09
2017-08-18T10:48:21.718Z,17.28
2017-08-18T10:49:31.376Z,17.42
2017-08-18T10:50:41.024Z,17.75
2017-08-18T10:51:50.680Z,17.8
2017-08-18T10:53:00.646Z,17.91
2017-08-18T10:54:10.921Z,17.86
2017-08-18T10:55:20.569Z,17.91
2017-08-18T10:56:30.851Z,18.19
2017-08-18T10:57:41.131Z,18.28
2017-08-18T10:58:51.100Z,18.27
2017-08-18T11:00:01.411Z,18.24
2017-08-18T11:01:11.373Z,18.3
2017-08-18T11:02:21.338Z,18.06
2017-08-18T11:03:31.622Z,18.08
2017-08-18T11:04:41.904Z,18.19
2017-08-18T11:05:51.866Z,18.18
2017-08-18T11:07:02.167Z,18.15
2017-08-18T11:08:12.144Z,18.21
2017-08-18T11:09:21.795Z,18.21
2017-08-18T11:10:31.442Z,18.28
2017-08-18T11:11:41.751Z,18.46
2017-08-18T11:12:51.719Z,18.45
2017-08-18T11:14:02.004Z,18.31
2017-08-18T11:15:11.658Z,18.36
2017-08-18T11:16:21.628Z,18.27
2017-08-18T11:17:31.909Z,18.42
2017-08-18T11:18:42.198Z,18.7
2017-08-18T11:19:52.479Z,18.91
2017-08-18T11:21:02.754Z,19.15
2017-08-18T11:22:13.046Z,19.42
2017-08-18T11:23:23.018Z,19.71
2017-08-18T11:24:32.991Z,19.96
2017-08-18T11:25:42.957Z,20.26
2017-08-18T11:26:53.237Z,20.8
2017-08-18T11:28:02.887Z,20.88
2017-08-18T11:29:12.537Z,20.93
2017-08-18T11:30:22.850Z,21.4
2017-08-18T11:31:33.131Z,21.88
2017-08-18T11:32:43.410Z,22.46
2017-08-18T11:33:53.383Z,22.99
2017-08-18T11:35:03.671Z,22.93
2017-08-18T11:36:13.639Z,22.96
2017-08-18T11:37:23.604Z,22.77
2017-08-18T11:38:33.891Z,22.23
2017-08-18T11:39:43.858Z,22
2017-08-18T11:40:54.136Z,21.75
2017-08-18T11:42:04.426Z,21.48
2017-08-18T11:43:14.391Z,21.25
2017-08-18T11:44:24.051Z,21.13
2017-08-18T11:45:34.379Z,20.93
2017-08-18T11:46:44.338Z,20.88
2017-08-18T11:47:54.309Z,20.92
2017-08-18T11:49:04.601Z,20.78
2017-08-18T11:50:14.252Z,21.08
2017-08-18T11:51:24.532Z,21.6
2017-08-18T11:52:34.499Z,21.53
2017-08-18T11:53:44.774Z,21.62
2017-08-18T11:54:55.052Z,21.81
2017-08-18T11:56:05.332Z,21.85
2017-08-18T11:57:15.617Z,22.59
2017-08-18T11:58:25.592Z,23.06
2017-08-18T11:59:35.577Z,23.7
2017-08-18T12:00:44.915Z,24.06
2017-08-18T12:01:55.195Z,23.84
2017-08-18T12:03:05.481Z,23.36
2017-08-18T12:04:15.763Z,22.99
2017-08-18T12:05:26.049Z,22.62
2017-08-18T12:06:35.710Z,22.51
2017-08-18T12:07:45.682Z,22.44
2017-08-18T12:08:55.655Z,22.38
2017-08-18T12:10:05.936Z,22.19
2017-08-18T12:11:16.215Z,21.91
2017-08-18T12:12:26.182Z,21.75
2017-08-18T12:13:35.833Z,21.37
2017-08-18T12:14:45.206Z,21.41
2017-08-18T12:15:55.484Z,21.38
2017-08-18T12:17:05.448Z,21.14
2017-08-18T12:18:15.418Z,21
2017-08-18T12:19:25.701Z,20.77
2017-08-18T12:20:35.978Z,20.74
2017-08-18T12:21:46.258Z,20.59
2017-08-18T12:22:56.231Z,20.46
2017-08-18T12:24:05.881Z,20.46
2017-08-18T12:25:15.855Z,20.42
2017-08-18T12:26:26.134Z,20.3
2017-08-18T12:27:35.790Z,20.27
2017-08-18T12:28:45.752Z,20.63
2017-08-18T12:29:55.404Z,21.17
2017-08-18T12:31:05.067Z,21.11
2017-08-18T12:32:15.035Z,21.05
2017-08-18T12:33:25.004Z,21.2
2017-08-18T12:34:34.971Z,21.78
2017-08-18T12:35:44.934Z,21.62
2017-08-18T12:36:54.899Z,21.3
2017-08-18T12:38:04.550Z,21.22
2017-08-18T12:39:14.516Z,21.51
2017-08-18T12:40:24.481Z,21.32
2017-08-18T12:41:34.769Z,21.05
2017-08-18T12:42:45.048Z,20.95
2017-08-18T12:43:55.033Z,20.7
2017-08-18T12:45:05.002Z,20.67
2017-08-18T12:46:14.653Z,20.66
2017-08-18T12:47:24.934Z,20.48
2017-08-18T12:48:34.588Z,20.9
2017-08-18T12:49:44.865Z,21.22
2017-08-18T12:50:55.149Z,21.74
2017-08-18T12:52:05.426Z,22.19
2017-08-18T12:53:15.735Z,22.18
2017-08-18T12:54:26.042Z,22.15
2017-08-18T12:55:36.320Z,22.56
2017-08-18T12:56:46.295Z,23.02
2017-08-18T12:57:56.576Z,23.42
2017-08-18T12:59:06.228Z,23.54
2017-08-18T13:00:16.506Z,23.67
2017-08-18T13:01:26.784Z,23.99
2017-08-18T13:02:36.449Z,24.01
2017-08-18T13:03:46.419Z,24.25
2017-08-18T13:04:56.713Z,24.46
2017-08-18T13:06:07.004Z,24.86
2017-08-18T13:07:16.661Z,25.11
2017-08-18T13:08:26.639Z,25.44
2017-08-18T13:09:36.925Z,25.55
2017-08-18T13:10:46.904Z,25.77
2017-08-18T13:11:56.876Z,26.04
2017-08-18T13:13:07.160Z,26.59
2017-08-18T13:14:17.445Z,26.71
2017-08-18T13:15:27.744Z,27.01
2017-08-18T13:16:37.713Z,26.97
2017-08-18T13:17:47.998Z,27.11
2017-08-18T13:18:58.284Z,27.26
2017-08-18T13:20:08.258Z,27.48
2017-08-18T13:21:17.604Z,27.53
2017-08-18T13:22:27.581Z,27.43
2017-08-18T13:23:37.553Z,27.43
2017-08-18T13:24:47.834Z,27.05
2017-08-18T13:25:57.495Z,26.36
2017-08-18T13:27:07.781Z,26.24
2017-08-18T13:28:18.063Z,26.48
2017-08-18T13:29:27.726Z,26.34
2017-08-18T13:30:37.702Z,26.31
2017-08-18T13:31:47.984Z,26.39
2017-08-18T13:32:57.961Z,26.53
2017-08-18T13:34:07.935Z,26.6
2017-08-18T13:35:17.907Z,26.64
2017-08-18T13:36:28.193Z,26.74
2017-08-18T13:37:38.480Z,26.59
2017-08-18T13:38:48.454Z,26.6
2017-08-18T13:39:58.117Z,26.68
2017-08-18T13:41:08.406Z,26.81
2017-08-18T13:42:18.688Z,27.15
2017-08-18T13:43:28.984Z,26.67
2017-08-18T13:44:38.957Z,25.95
2017-08-18T13:45:48.926Z,25.39
2017-08-18T13:46:59.216Z,24.97
2017-08-18T13:48:09.498Z,24.55
2017-08-18T13:49:19.785Z,24.11
2017-08-18T13:50:29.756Z,24.01
2017-08-18T13:51:39.724Z,24
2017-08-18T13:52:49.701Z,23.66
2017-08-18T13:53:59.352Z,23.34
2017-08-18T13:55:09.029Z,23.71
2017-08-18T13:56:19.337Z,24.19
2017-08-18T13:57:29.302Z,24.77
2017-08-18T13:58:38.959Z,25.34
2017-08-18T13:59:48.988Z,25.4
2017-08-18T14:00:58.644Z,25.73
2017-08-18T14:02:08.929Z,26.06
2017-08-18T14:03:18.902Z,26.13
2017-08-18T14:04:28.560Z,25.55
2017-08-18T14:05:38.527Z,25.15
2017-08-18T14:06:48.809Z,24.79
2017-08-18T14:07:58.779Z,24.51
2017-08-18T14:09:09.058Z,24.25
2017-08-18T14:10:18.714Z,24.11
2017-08-18T14:11:29.011Z,23.92
2017-08-18T14:12:38.987Z,23.66
2017-08-18T14:13:49.269Z,23.37
2017-08-18T14:14:59.556Z,23.2
2017-08-18T14:16:09.836Z,23.36
2017-08-18T14:17:19.487Z,23.91
2017-08-18T14:18:29.451Z,23.89
2017-08-18T14:19:38.785Z,23.77
2017-08-18T14:20:49.077Z,23.76
2017-08-18T14:21:58.730Z,23.55
2017-08-18T14:23:08.696Z,23.42
2017-08-18T14:24:18.977Z,23.42
2017-08-18T14:25:28.944Z,23.16
2017-08-18T14:26:39.221Z,23.01
2017-08-18T14:27:49.497Z,22.83
2017-08-18T14:28:59.779Z,22.7
2017-08-18T14:30:10.063Z,22.46
2017-08-18T14:31:20.030Z,22.26
2017-08-18T14:32:30.310Z,22.21
2017-08-18T14:33:40.591Z,22.06
2017-08-18T14:34:50.240Z,21.91
2017-08-18T14:36:00.515Z,21.84
2017-08-18T14:37:10.488Z,21.74
2017-08-18T14:38:20.774Z,21.66
2017-08-18T14:39:31.053Z,21.63
2017-08-18T14:40:41.017Z,21.48
2017-08-18T14:41:51.291Z,21.38
2017-08-18T14:43:00.942Z,21.37
2017-08-18T14:44:10.911Z,21.17
2017-08-18T14:45:20.879Z,21.17
2017-08-18T14:46:31.179Z,21.14
2017-08-18T14:47:41.141Z,21.07
2017-08-18T14:48:51.428Z,20.89
2017-08-18T14:50:01.710Z,20.8
2017-08-18T14:51:11.994Z,20.77
2017-08-18T14:52:21.648Z,20.73
2017-08-18T14:53:31.291Z,20.7
2017-08-18T14:54:41.571Z,20.63
2017-08-18T14:55:51.852Z,20.6
2017-08-18T14:57:01.810Z,20.56
2017-08-18T14:58:11.470Z,20.63
2017-08-18T14:59:21.437Z,20.68
2017-08-18T15:00:31.718Z,20.56
2017-08-18T15:01:41.991Z,20.55
2017-08-18T15:02:51.956Z,20.46
2017-08-18T15:04:02.235Z,20.33
2017-08-18T15:05:12.197Z,20.39